sensor_id;sensor_type;location;lat;lon;timestamp;temperature;humidity
41630;DHT22;27322;49.488;8.480;2024-02-26T00:01:28;10.50;99.90
41630;DHT22;27322;49.488;8.480;2024-02-26T00:03:56;10.40;99.90
41630;DHT22;27322;49.488;8.480;2024-02-26T00:06:24;10.40;99.90
41630;DHT22;27322;49.488;8.480;2024-02-26T00:08:50;10.40;99.90
41630;DHT22;27322;49.488;8.480;2024-02-26T00:11:16;10.40;99.90
41630;DHT22;27322;49.488;8.480;2024-02-26T00:13:41;10.30;99.90
41630;DHT22;27322;49.488;8.480;2024-02-26T00:16:07;10.30;99.90
41630;DHT22;27322;49.488;8.480;2024-02-26T00:18:33;10.30;99.90
41630;DHT22;27322;49.488;8.480;2024-02-26T00:20:59;10.30;99.90
41630;DHT22;27322;49.488;8.480;2024-02-26T00:23:24;10.30;99.90
41630;DHT22;27322;49.488;8.480;2024-02-26T00:25:50;10.30;99.90
41630;DHT22;27322;49.488;8.480;2024-02-26T00:28:15;10.30;99.90
41630;DHT22;27322;49.488;8.480;2024-02-26T00:30:41;10.30;99.90
41630;DHT22;27322;49.488;8.480;2024-02-26T00:33:06;10.30;99.90
41630;DHT22;27322;49.488;8.480;2024-02-26T00:35:32;10.30;99.90
41630;DHT22;27322;49.488;8.480;2024-02-26T00:37:57;10.30;99.90
41630;DHT22;27322;49.488;8.480;2024-02-26T00:40:24;10.30;99.90
41630;DHT22;27322;49.488;8.480;2024-02-26T00:42:49;10.30;99.90
41630;DHT22;27322;49.488;8.480;2024-02-26T00:45:15;10.30;99.90
41630;DHT22;27322;49.488;8.480;2024-02-26T00:47:41;10.30;99.90
41630;DHT22;27322;49.488;8.480;2024-02-26T00:50:08;10.30;99.90
41630;DHT22;27322;49.488;8.480;2024-02-26T00:52:34;10.30;99.90
41630;DHT22;27322;49.488;8.480;2024-02-26T00:55:00;10.30;99.90
41630;DHT22;27322;49.488;8.480;2024-02-26T00:57:26;10.30;99.90
41630;DHT22;27322;49.488;8.480;2024-02-26T00:59:51;10.30;99.90
41630;DHT22;27322;49.488;8.480;2024-02-26T01:02:17;10.30;99.90
41630;DHT22;27322;49.488;8.480;2024-02-26T01:04:42;10.30;99.90
41630;DHT22;27322;49.488;8.480;2024-02-26T01:07:09;10.40;99.90
41630;DHT22;27322;49.488;8.480;2024-02-26T01:09:34;10.40;99.90
41630;DHT22;27322;49.488;8.480;2024-02-26T01:12:00;10.40;99.90
41630;DHT22;27322;49.488;8.480;2024-02-26T01:14:25;10.40;99.90
41630;DHT22;27322;49.488;8.480;2024-02-26T01:16:51;10.40;99.90
41630;DHT22;27322;49.488;8.480;2024-02-26T01:19:16;10.40;99.90
41630;DHT22;27322;49.488;8.480;2024-02-26T01:21:42;10.40;99.90
41630;DHT22;27322;49.488;8.480;2024-02-26T01:24:08;10.40;99.90
41630;DHT22;27322;49.488;8.480;2024-02-26T01:26:33;10.40;99.90
41630;DHT22;27322;49.488;8.480;2024-02-26T01:28:59;10.40;99.90
41630;DHT22;27322;49.488;8.480;2024-02-26T01:31:24;10.40;99.90
41630;DHT22;27322;49.488;8.480;2024-02-26T01:33:50;10.40;99.90
41630;DHT22;27322;49.488;8.480;2024-02-26T01:36:16;10.40;99.90
41630;DHT22;27322;49.488;8.480;2024-02-26T01:38:41;10.40;99.90
41630;DHT22;27322;49.488;8.480;2024-02-26T01:41:07;10.40;99.90
41630;DHT22;27322;49.488;8.480;2024-02-26T01:43:32;10.40;99.90
41630;DHT22;27322;49.488;8.480;2024-02-26T01:45:58;10.40;99.90
41630;DHT22;27322;49.488;8.480;2024-02-26T01:48:24;10.40;99.90
41630;DHT22;27322;49.488;8.480;2024-02-26T01:50:51;10.40;99.90
41630;DHT22;27322;49.488;8.480;2024-02-26T01:53:17;10.40;99.90
41630;DHT22;27322;49.488;8.480;2024-02-26T01:55:44;10.40;99.90
41630;DHT22;27322;49.488;8.480;2024-02-26T01:58:10;10.40;99.90
41630;DHT22;27322;49.488;8.480;2024-02-26T02:00:36;10.40;99.90
41630;DHT22;27322;49.488;8.480;2024-02-26T02:03:02;10.40;99.90
41630;DHT22;27322;49.488;8.480;2024-02-26T02:05:29;10.30;99.90
41630;DHT22;27322;49.488;8.480;2024-02-26T02:07:55;10.30;99.90
41630;DHT22;27322;49.488;8.480;2024-02-26T02:10:21;10.30;99.90
41630;DHT22;27322;49.488;8.480;2024-02-26T02:12:51;10.30;99.90
41630;DHT22;27322;49.488;8.480;2024-02-26T02:15:17;10.30;99.90
41630;DHT22;27322;49.488;8.480;2024-02-26T02:17:43;10.30;99.90
41630;DHT22;27322;49.488;8.480;2024-02-26T02:20:10;10.30;99.90
41630;DHT22;27322;49.488;8.480;2024-02-26T02:22:40;10.20;99.90
41630;DHT22;27322;49.488;8.480;2024-02-26T02:25:06;10.10;99.90
41630;DHT22;27322;49.488;8.480;2024-02-26T02:27:31;10.10;99.90
41630;DHT22;27322;49.488;8.480;2024-02-26T02:29:57;10.10;99.90
41630;DHT22;27322;49.488;8.480;2024-02-26T02:32:24;10.00;99.90
41630;DHT22;27322;49.488;8.480;2024-02-26T02:34:50;9.90;99.90
41630;DHT22;27322;49.488;8.480;2024-02-26T02:37:16;9.90;99.90
41630;DHT22;27322;49.488;8.480;2024-02-26T02:39:41;9.80;99.90
41630;DHT22;27322;49.488;8.480;2024-02-26T02:42:08;9.70;99.90
41630;DHT22;27322;49.488;8.480;2024-02-26T02:44:34;9.70;99.90
41630;DHT22;27322;49.488;8.480;2024-02-26T02:47:00;9.60;99.90
41630;DHT22;27322;49.488;8.480;2024-02-26T02:49:25;9.60;99.90
41630;DHT22;27322;49.488;8.480;2024-02-26T02:51:51;9.60;99.90
41630;DHT22;27322;49.488;8.480;2024-02-26T02:54:19;9.60;99.90
41630;DHT22;27322;49.488;8.480;2024-02-26T02:56:45;9.50;99.90
41630;DHT22;27322;49.488;8.480;2024-02-26T02:59:10;9.50;99.90
41630;DHT22;27322;49.488;8.480;2024-02-26T03:01:36;9.50;99.90
41630;DHT22;27322;49.488;8.480;2024-02-26T03:04:02;9.40;99.90
41630;DHT22;27322;49.488;8.480;2024-02-26T03:06:27;9.40;99.90
41630;DHT22;27322;49.488;8.480;2024-02-26T03:08:54;9.40;99.90
41630;DHT22;27322;49.488;8.480;2024-02-26T03:11:20;9.40;99.90
41630;DHT22;27322;49.488;8.480;2024-02-26T03:13:46;9.40;99.90
41630;DHT22;27322;49.488;8.480;2024-02-26T03:16:11;9.40;99.90
41630;DHT22;27322;49.488;8.480;2024-02-26T03:18:40;9.40;99.90
41630;DHT22;27322;49.488;8.480;2024-02-26T03:21:06;9.40;99.90
41630;DHT22;27322;49.488;8.480;2024-02-26T03:23:32;9.40;99.90
41630;DHT22;27322;49.488;8.480;2024-02-26T03:26:04;9.30;99.90
41630;DHT22;27322;49.488;8.480;2024-02-26T03:28:30;9.30;99.90
41630;DHT22;27322;49.488;8.480;2024-02-26T03:30:58;9.30;99.90
41630;DHT22;27322;49.488;8.480;2024-02-26T03:33:24;9.20;99.90
41630;DHT22;27322;49.488;8.480;2024-02-26T03:35:50;9.20;99.90
41630;DHT22;27322;49.488;8.480;2024-02-26T03:38:15;9.20;99.90
41630;DHT22;27322;49.488;8.480;2024-02-26T03:40:41;9.20;99.90
41630;DHT22;27322;49.488;8.480;2024-02-26T03:43:06;9.20;99.90
41630;DHT22;27322;49.488;8.480;2024-02-26T03:45:33;9.10;99.90
41630;DHT22;27322;49.488;8.480;2024-02-26T03:47:58;9.10;99.90
41630;DHT22;27322;49.488;8.480;2024-02-26T03:50:24;9.10;99.90
41630;DHT22;27322;49.488;8.480;2024-02-26T03:52:50;9.10;99.90
41630;DHT22;27322;49.488;8.480;2024-02-26T03:55:15;9.10;99.90
41630;DHT22;27322;49.488;8.480;2024-02-26T03:57:43;9.10;99.90
41630;DHT22;27322;49.488;8.480;2024-02-26T04:00:09;9.00;99.90
41630;DHT22;27322;49.488;8.480;2024-02-26T04:02:35;9.00;99.90
41630;DHT22;27322;49.488;8.480;2024-02-26T04:05:00;9.00;99.90
41630;DHT22;27322;49.488;8.480;2024-02-26T04:07:26;9.00;99.90
41630;DHT22;27322;49.488;8.480;2024-02-26T04:09:52;9.00;99.90
41630;DHT22;27322;49.488;8.480;2024-02-26T04:12:17;9.00;99.90
41630;DHT22;27322;49.488;8.480;2024-02-26T04:14:44;8.90;99.90
41630;DHT22;27322;49.488;8.480;2024-02-26T04:17:10;8.90;99.90
41630;DHT22;27322;49.488;8.480;2024-02-26T04:19:36;8.90;99.90
41630;DHT22;27322;49.488;8.480;2024-02-26T04:22:02;8.90;99.90
41630;DHT22;27322;49.488;8.480;2024-02-26T04:24:27;8.90;99.90
41630;DHT22;27322;49.488;8.480;2024-02-26T04:26:53;8.80;99.90
41630;DHT22;27322;49.488;8.480;2024-02-26T04:29:19;8.80;99.90
41630;DHT22;27322;49.488;8.480;2024-02-26T04:31:44;8.80;99.90
41630;DHT22;27322;49.488;8.480;2024-02-26T04:34:11;8.80;99.90
41630;DHT22;27322;49.488;8.480;2024-02-26T04:36:36;8.80;99.90
41630;DHT22;27322;49.488;8.480;2024-02-26T04:39:02;8.80;99.90
41630;DHT22;27322;49.488;8.480;2024-02-26T04:41:28;8.70;99.90
41630;DHT22;27322;49.488;8.480;2024-02-26T04:43:53;8.70;99.90
41630;DHT22;27322;49.488;8.480;2024-02-26T04:46:19;8.70;99.90
41630;DHT22;27322;49.488;8.480;2024-02-26T04:48:47;8.70;99.90
41630;DHT22;27322;49.488;8.480;2024-02-26T04:51:12;8.80;99.90
41630;DHT22;27322;49.488;8.480;2024-02-26T04:53:38;8.70;99.90
41630;DHT22;27322;49.488;8.480;2024-02-26T04:56:04;8.70;99.90
41630;DHT22;27322;49.488;8.480;2024-02-26T04:58:29;8.70;99.90
41630;DHT22;27322;49.488;8.480;2024-02-26T05:00:55;8.70;99.90
41630;DHT22;27322;49.488;8.480;2024-02-26T05:03:21;8.70;99.90
41630;DHT22;27322;49.488;8.480;2024-02-26T05:05:47;8.80;99.90
41630;DHT22;27322;49.488;8.480;2024-02-26T05:08:12;8.80;99.90
41630;DHT22;27322;49.488;8.480;2024-02-26T05:10:38;8.70;99.90
41630;DHT22;27322;49.488;8.480;2024-02-26T05:13:06;8.70;99.90
41630;DHT22;27322;49.488;8.480;2024-02-26T05:15:32;8.70;99.90
41630;DHT22;27322;49.488;8.480;2024-02-26T05:17:58;8.70;99.90
41630;DHT22;27322;49.488;8.480;2024-02-26T05:20:24;8.70;99.90
41630;DHT22;27322;49.488;8.480;2024-02-26T05:22:50;8.70;99.90
41630;DHT22;27322;49.488;8.480;2024-02-26T05:25:16;8.70;99.90
41630;DHT22;27322;49.488;8.480;2024-02-26T05:27:42;8.80;99.90
41630;DHT22;27322;49.488;8.480;2024-02-26T05:30:09;8.70;99.90
41630;DHT22;27322;49.488;8.480;2024-02-26T05:32:35;8.80;99.90
41630;DHT22;27322;49.488;8.480;2024-02-26T05:35:01;8.80;99.90
41630;DHT22;27322;49.488;8.480;2024-02-26T05:37:28;8.80;99.90
41630;DHT22;27322;49.488;8.480;2024-02-26T05:39:53;8.80;99.90
41630;DHT22;27322;49.488;8.480;2024-02-26T05:42:19;8.80;99.90
41630;DHT22;27322;49.488;8.480;2024-02-26T05:44:45;8.80;99.90
41630;DHT22;27322;49.488;8.480;2024-02-26T05:47:10;8.80;99.90
41630;DHT22;27322;49.488;8.480;2024-02-26T05:49:36;8.80;99.90
41630;DHT22;27322;49.488;8.480;2024-02-26T05:52:01;8.80;99.90
41630;DHT22;27322;49.488;8.480;2024-02-26T05:54:27;8.80;99.90
41630;DHT22;27322;49.488;8.480;2024-02-26T05:56:53;8.80;99.90
41630;DHT22;27322;49.488;8.480;2024-02-26T05:59:18;8.80;99.90
41630;DHT22;27322;49.488;8.480;2024-02-26T06:01:44;8.80;99.90
41630;DHT22;27322;49.488;8.480;2024-02-26T06:04:09;8.90;99.90
41630;DHT22;27322;49.488;8.480;2024-02-26T06:06:35;8.90;99.90
41630;DHT22;27322;49.488;8.480;2024-02-26T06:09:00;8.90;99.90
41630;DHT22;27322;49.488;8.480;2024-02-26T06:11:26;8.90;99.90
41630;DHT22;27322;49.488;8.480;2024-02-26T06:13:52;8.90;99.90
41630;DHT22;27322;49.488;8.480;2024-02-26T06:16:18;9.00;99.90
41630;DHT22;27322;49.488;8.480;2024-02-26T06:18:43;9.00;99.90
41630;DHT22;27322;49.488;8.480;2024-02-26T06:21:09;9.00;99.90
41630;DHT22;27322;49.488;8.480;2024-02-26T06:23:36;9.00;99.90
41630;DHT22;27322;49.488;8.480;2024-02-26T06:26:02;9.00;99.90
41630;DHT22;27322;49.488;8.480;2024-02-26T06:28:27;9.00;99.90
41630;DHT22;27322;49.488;8.480;2024-02-26T06:30:55;9.00;99.90
41630;DHT22;27322;49.488;8.480;2024-02-26T06:33:21;9.00;99.90
41630;DHT22;27322;49.488;8.480;2024-02-26T06:35:47;9.00;99.90
41630;DHT22;27322;49.488;8.480;2024-02-26T06:38:12;9.10;99.90
41630;DHT22;27322;49.488;8.480;2024-02-26T06:40:39;9.10;99.90
41630;DHT22;27322;49.488;8.480;2024-02-26T06:43:05;9.10;99.90
41630;DHT22;27322;49.488;8.480;2024-02-26T06:45:30;9.00;99.90
41630;DHT22;27322;49.488;8.480;2024-02-26T06:47:56;9.10;99.90
41630;DHT22;27322;49.488;8.480;2024-02-26T06:50:22;9.10;99.90
41630;DHT22;27322;49.488;8.480;2024-02-26T06:52:47;9.10;99.90
41630;DHT22;27322;49.488;8.480;2024-02-26T06:55:13;9.10;99.90
41630;DHT22;27322;49.488;8.480;2024-02-26T06:57:39;9.10;99.90
41630;DHT22;27322;49.488;8.480;2024-02-26T07:00:05;9.10;99.90
41630;DHT22;27322;49.488;8.480;2024-02-26T07:02:31;9.10;99.90
41630;DHT22;27322;49.488;8.480;2024-02-26T07:04:56;9.10;99.90
41630;DHT22;27322;49.488;8.480;2024-02-26T07:07:24;9.10;99.90
41630;DHT22;27322;49.488;8.480;2024-02-26T07:09:49;9.10;99.90
41630;DHT22;27322;49.488;8.480;2024-02-26T07:12:15;9.10;99.90
41630;DHT22;27322;49.488;8.480;2024-02-26T07:14:41;9.20;99.90
41630;DHT22;27322;49.488;8.480;2024-02-26T07:17:07;9.20;99.90
41630;DHT22;27322;49.488;8.480;2024-02-26T07:19:33;9.20;99.90
41630;DHT22;27322;49.488;8.480;2024-02-26T07:21:59;9.20;99.90
41630;DHT22;27322;49.488;8.480;2024-02-26T07:24:27;9.20;99.90
41630;DHT22;27322;49.488;8.480;2024-02-26T07:26:53;9.20;99.90
41630;DHT22;27322;49.488;8.480;2024-02-26T07:29:20;9.10;99.90
41630;DHT22;27322;49.488;8.480;2024-02-26T07:31:45;9.20;99.90
41630;DHT22;27322;49.488;8.480;2024-02-26T07:34:11;9.10;99.90
41630;DHT22;27322;49.488;8.480;2024-02-26T07:36:37;9.20;99.90
41630;DHT22;27322;49.488;8.480;2024-02-26T07:39:02;9.10;99.90
41630;DHT22;27322;49.488;8.480;2024-02-26T07:41:28;9.20;99.90
41630;DHT22;27322;49.488;8.480;2024-02-26T07:43:53;9.20;99.90
41630;DHT22;27322;49.488;8.480;2024-02-26T07:46:19;9.20;99.90
41630;DHT22;27322;49.488;8.480;2024-02-26T07:48:44;9.20;99.90
41630;DHT22;27322;49.488;8.480;2024-02-26T07:51:12;9.20;99.90
41630;DHT22;27322;49.488;8.480;2024-02-26T07:53:39;9.20;99.90
41630;DHT22;27322;49.488;8.480;2024-02-26T07:56:05;9.20;99.90
41630;DHT22;27322;49.488;8.480;2024-02-26T07:58:32;9.20;99.90
41630;DHT22;27322;49.488;8.480;2024-02-26T08:00:57;9.20;99.90
41630;DHT22;27322;49.488;8.480;2024-02-26T08:03:23;9.10;99.90
41630;DHT22;27322;49.488;8.480;2024-02-26T08:05:48;9.20;99.90
41630;DHT22;27322;49.488;8.480;2024-02-26T08:08:14;9.20;99.90
41630;DHT22;27322;49.488;8.480;2024-02-26T08:10:40;9.10;99.90
41630;DHT22;27322;49.488;8.480;2024-02-26T08:13:05;9.20;99.90
41630;DHT22;27322;49.488;8.480;2024-02-26T08:15:32;9.20;99.90
41630;DHT22;27322;49.488;8.480;2024-02-26T08:17:59;9.10;99.90
41630;DHT22;27322;49.488;8.480;2024-02-26T08:20:28;9.10;99.90
41630;DHT22;27322;49.488;8.480;2024-02-26T08:22:53;9.20;99.90
41630;DHT22;27322;49.488;8.480;2024-02-26T08:25:19;9.20;99.90
41630;DHT22;27322;49.488;8.480;2024-02-26T08:27:44;9.20;99.90
41630;DHT22;27322;49.488;8.480;2024-02-26T08:30:11;9.20;99.90
41630;DHT22;27322;49.488;8.480;2024-02-26T08:32:38;9.20;99.90
41630;DHT22;27322;49.488;8.480;2024-02-26T08:35:04;9.20;99.90
41630;DHT22;27322;49.488;8.480;2024-02-26T08:37:30;9.30;99.90
41630;DHT22;27322;49.488;8.480;2024-02-26T08:39:55;9.30;99.90
41630;DHT22;27322;49.488;8.480;2024-02-26T08:42:21;9.30;99.90
41630;DHT22;27322;49.488;8.480;2024-02-26T08:44:49;9.40;99.90
41630;DHT22;27322;49.488;8.480;2024-02-26T08:47:15;9.40;99.90
41630;DHT22;27322;49.488;8.480;2024-02-26T08:49:45;9.50;99.90
41630;DHT22;27322;49.488;8.480;2024-02-26T08:52:11;9.50;99.90
41630;DHT22;27322;49.488;8.480;2024-02-26T08:54:37;9.50;99.90
41630;DHT22;27322;49.488;8.480;2024-02-26T08:57:03;9.50;99.90
41630;DHT22;27322;49.488;8.480;2024-02-26T08:59:29;9.60;99.90
41630;DHT22;27322;49.488;8.480;2024-02-26T09:01:54;9.60;99.90
41630;DHT22;27322;49.488;8.480;2024-02-26T09:04:20;9.60;99.90
41630;DHT22;27322;49.488;8.480;2024-02-26T09:06:46;9.60;99.90
41630;DHT22;27322;49.488;8.480;2024-02-26T09:09:12;9.70;99.90
41630;DHT22;27322;49.488;8.480;2024-02-26T09:11:38;9.60;99.90
41630;DHT22;27322;49.488;8.480;2024-02-26T09:14:03;9.60;99.90
41630;DHT22;27322;49.488;8.480;2024-02-26T09:16:30;9.70;99.90
41630;DHT22;27322;49.488;8.480;2024-02-26T09:18:56;9.70;99.90
41630;DHT22;27322;49.488;8.480;2024-02-26T09:21:21;9.70;99.90
41630;DHT22;27322;49.488;8.480;2024-02-26T09:23:52;9.70;99.90
41630;DHT22;27322;49.488;8.480;2024-02-26T09:26:18;9.80;99.90
41630;DHT22;27322;49.488;8.480;2024-02-26T09:28:44;9.80;99.90
41630;DHT22;27322;49.488;8.480;2024-02-26T09:31:10;9.80;99.90
41630;DHT22;27322;49.488;8.480;2024-02-26T09:33:36;9.80;99.90
41630;DHT22;27322;49.488;8.480;2024-02-26T09:36:03;9.80;99.90
41630;DHT22;27322;49.488;8.480;2024-02-26T09:38:29;9.90;99.90
41630;DHT22;27322;49.488;8.480;2024-02-26T09:40:57;9.90;99.90
41630;DHT22;27322;49.488;8.480;2024-02-26T09:43:23;9.90;99.90
41630;DHT22;27322;49.488;8.480;2024-02-26T09:45:54;10.00;99.90
41630;DHT22;27322;49.488;8.480;2024-02-26T09:48:22;10.00;99.90
41630;DHT22;27322;49.488;8.480;2024-02-26T09:50:49;10.10;99.90
41630;DHT22;27322;49.488;8.480;2024-02-26T09:53:15;10.10;99.90
41630;DHT22;27322;49.488;8.480;2024-02-26T09:55:42;10.10;99.90
41630;DHT22;27322;49.488;8.480;2024-02-26T09:58:08;10.20;99.90
41630;DHT22;27322;49.488;8.480;2024-02-26T10:00:37;10.20;99.90
41630;DHT22;27322;49.488;8.480;2024-02-26T10:03:05;10.20;99.90
41630;DHT22;27322;49.488;8.480;2024-02-26T10:05:32;10.30;99.90
41630;DHT22;27322;49.488;8.480;2024-02-26T10:07:59;10.30;99.90
41630;DHT22;27322;49.488;8.480;2024-02-26T10:10:28;10.30;99.90
41630;DHT22;27322;49.488;8.480;2024-02-26T10:12:54;10.30;99.90
41630;DHT22;27322;49.488;8.480;2024-02-26T10:15:20;10.30;99.90
41630;DHT22;27322;49.488;8.480;2024-02-26T10:17:46;10.40;99.90
41630;DHT22;27322;49.488;8.480;2024-02-26T10:20:16;10.40;99.90
41630;DHT22;27322;49.488;8.480;2024-02-26T10:22:45;10.50;99.90
41630;DHT22;27322;49.488;8.480;2024-02-26T10:25:11;10.60;99.90
41630;DHT22;27322;49.488;8.480;2024-02-26T10:27:37;10.60;99.90
41630;DHT22;27322;49.488;8.480;2024-02-26T10:30:04;10.70;99.90
41630;DHT22;27322;49.488;8.480;2024-02-26T10:32:30;10.70;99.90
41630;DHT22;27322;49.488;8.480;2024-02-26T10:34:56;10.70;99.90
41630;DHT22;27322;49.488;8.480;2024-02-26T10:37:23;10.80;99.90
41630;DHT22;27322;49.488;8.480;2024-02-26T10:39:48;10.90;99.90
41630;DHT22;27322;49.488;8.480;2024-02-26T10:42:14;11.00;99.90
41630;DHT22;27322;49.488;8.480;2024-02-26T10:44:40;11.10;99.90
41630;DHT22;27322;49.488;8.480;2024-02-26T10:47:08;11.40;99.90
41630;DHT22;27322;49.488;8.480;2024-02-26T10:49:35;11.60;99.90
41630;DHT22;27322;49.488;8.480;2024-02-26T10:52:01;11.70;99.90
41630;DHT22;27322;49.488;8.480;2024-02-26T10:54:29;11.80;99.90
41630;DHT22;27322;49.488;8.480;2024-02-26T10:56:56;11.80;99.90
41630;DHT22;27322;49.488;8.480;2024-02-26T10:59:23;11.80;99.90
41630;DHT22;27322;49.488;8.480;2024-02-26T11:01:49;11.90;99.90
41630;DHT22;27322;49.488;8.480;2024-02-26T11:04:16;11.80;99.90
41630;DHT22;27322;49.488;8.480;2024-02-26T11:06:44;11.80;99.90
41630;DHT22;27322;49.488;8.480;2024-02-26T11:09:12;11.90;99.90
41630;DHT22;27322;49.488;8.480;2024-02-26T11:11:41;11.90;99.90
41630;DHT22;27322;49.488;8.480;2024-02-26T11:14:08;12.00;99.90
41630;DHT22;27322;49.488;8.480;2024-02-26T11:16:35;12.00;99.90
41630;DHT22;27322;49.488;8.480;2024-02-26T11:19:02;12.00;99.90
41630;DHT22;27322;49.488;8.480;2024-02-26T11:21:28;12.00;99.90
41630;DHT22;27322;49.488;8.480;2024-02-26T11:24:05;12.00;99.90
41630;DHT22;27322;49.488;8.480;2024-02-26T11:26:33;11.90;99.90
41630;DHT22;27322;49.488;8.480;2024-02-26T11:28:59;11.90;99.90
41630;DHT22;27322;49.488;8.480;2024-02-26T11:31:26;11.90;99.90
41630;DHT22;27322;49.488;8.480;2024-02-26T11:33:54;11.90;99.90
41630;DHT22;27322;49.488;8.480;2024-02-26T11:36:19;11.90;99.90
41630;DHT22;27322;49.488;8.480;2024-02-26T11:38:46;11.90;99.90
41630;DHT22;27322;49.488;8.480;2024-02-26T11:41:15;11.90;99.90
41630;DHT22;27322;49.488;8.480;2024-02-26T11:44:02;11.90;99.90
41630;DHT22;27322;49.488;8.480;2024-02-26T11:46:31;11.90;99.90
41630;DHT22;27322;49.488;8.480;2024-02-26T11:51:55;11.80;99.90
41630;DHT22;27322;49.488;8.480;2024-02-26T11:54:43;11.80;99.90
41630;DHT22;27322;49.488;8.480;2024-02-26T11:57:28;11.90;99.90
41630;DHT22;27322;49.488;8.480;2024-02-26T12:02:55;11.80;99.90
41630;DHT22;27322;49.488;8.480;2024-02-26T12:05:27;11.80;99.90
41630;DHT22;27322;49.488;8.480;2024-02-26T12:10:30;11.90;99.90
41630;DHT22;27322;49.488;8.480;2024-02-26T12:13:06;11.90;99.90
41630;DHT22;27322;49.488;8.480;2024-02-26T12:15:37;11.90;99.90
41630;DHT22;27322;49.488;8.480;2024-02-26T12:18:04;12.00;99.90
41630;DHT22;27322;49.488;8.480;2024-02-26T12:20:30;12.00;99.90
41630;DHT22;27322;49.488;8.480;2024-02-26T12:22:56;12.00;99.90
41630;DHT22;27322;49.488;8.480;2024-02-26T12:25:24;12.00;99.90
41630;DHT22;27322;49.488;8.480;2024-02-26T12:27:52;12.10;99.90
41630;DHT22;27322;49.488;8.480;2024-02-26T12:30:18;12.10;99.90
41630;DHT22;27322;49.488;8.480;2024-02-26T12:32:45;12.10;99.90
41630;DHT22;27322;49.488;8.480;2024-02-26T12:35:11;12.10;99.90
41630;DHT22;27322;49.488;8.480;2024-02-26T12:37:38;12.20;99.90
41630;DHT22;27322;49.488;8.480;2024-02-26T12:40:06;12.20;99.90
41630;DHT22;27322;49.488;8.480;2024-02-26T12:42:37;12.20;99.90
41630;DHT22;27322;49.488;8.480;2024-02-26T12:45:08;12.20;99.90
41630;DHT22;27322;49.488;8.480;2024-02-26T12:47:41;12.20;99.90
41630;DHT22;27322;49.488;8.480;2024-02-26T12:50:08;12.20;99.90
41630;DHT22;27322;49.488;8.480;2024-02-26T12:52:35;12.20;99.90
41630;DHT22;27322;49.488;8.480;2024-02-26T12:55:04;12.10;99.90
41630;DHT22;27322;49.488;8.480;2024-02-26T12:57:32;12.20;99.90
41630;DHT22;27322;49.488;8.480;2024-02-26T12:59:59;12.20;99.90
41630;DHT22;27322;49.488;8.480;2024-02-26T13:02:25;12.20;99.90
41630;DHT22;27322;49.488;8.480;2024-02-26T13:04:52;12.30;99.90
41630;DHT22;27322;49.488;8.480;2024-02-26T13:07:18;12.30;99.90
41630;DHT22;27322;49.488;8.480;2024-02-26T13:09:44;12.30;99.90
41630;DHT22;27322;49.488;8.480;2024-02-26T13:12:10;12.40;99.90
41630;DHT22;27322;49.488;8.480;2024-02-26T13:14:37;12.40;99.90
41630;DHT22;27322;49.488;8.480;2024-02-26T13:17:03;12.40;99.90
41630;DHT22;27322;49.488;8.480;2024-02-26T13:19:28;12.30;99.90
41630;DHT22;27322;49.488;8.480;2024-02-26T13:21:54;12.40;99.90
41630;DHT22;27322;49.488;8.480;2024-02-26T13:24:21;12.40;99.90
41630;DHT22;27322;49.488;8.480;2024-02-26T13:26:53;12.40;99.90
41630;DHT22;27322;49.488;8.480;2024-02-26T13:29:19;12.40;99.90
41630;DHT22;27322;49.488;8.480;2024-02-26T13:31:45;12.40;99.90
41630;DHT22;27322;49.488;8.480;2024-02-26T13:34:22;12.40;99.90
41630;DHT22;27322;49.488;8.480;2024-02-26T13:36:48;12.50;99.90
41630;DHT22;27322;49.488;8.480;2024-02-26T13:39:21;12.50;99.90
41630;DHT22;27322;49.488;8.480;2024-02-26T13:41:48;12.50;99.90
41630;DHT22;27322;49.488;8.480;2024-02-26T13:44:13;12.60;99.90
41630;DHT22;27322;49.488;8.480;2024-02-26T13:46:39;12.60;99.90
41630;DHT22;27322;49.488;8.480;2024-02-26T13:49:08;12.60;99.90
41630;DHT22;27322;49.488;8.480;2024-02-26T13:51:35;12.60;99.90
41630;DHT22;27322;49.488;8.480;2024-02-26T13:54:01;12.60;99.90
41630;DHT22;27322;49.488;8.480;2024-02-26T13:56:27;12.60;99.90
41630;DHT22;27322;49.488;8.480;2024-02-26T13:58:53;12.60;99.90
41630;DHT22;27322;49.488;8.480;2024-02-26T14:01:18;12.60;99.90
41630;DHT22;27322;49.488;8.480;2024-02-26T14:03:44;12.60;99.90
41630;DHT22;27322;49.488;8.480;2024-02-26T14:06:10;12.70;99.90
41630;DHT22;27322;49.488;8.480;2024-02-26T14:08:36;12.70;99.90
41630;DHT22;27322;49.488;8.480;2024-02-26T14:11:01;12.70;99.90
41630;DHT22;27322;49.488;8.480;2024-02-26T14:13:27;12.70;99.90
41630;DHT22;27322;49.488;8.480;2024-02-26T14:15:52;12.80;99.90
41630;DHT22;27322;49.488;8.480;2024-02-26T14:18:18;12.80;99.90
41630;DHT22;27322;49.488;8.480;2024-02-26T14:20:43;12.90;99.90
41630;DHT22;27322;49.488;8.480;2024-02-26T14:23:10;12.90;99.90
41630;DHT22;27322;49.488;8.480;2024-02-26T14:25:36;13.00;99.90
41630;DHT22;27322;49.488;8.480;2024-02-26T14:28:02;13.00;99.90
41630;DHT22;27322;49.488;8.480;2024-02-26T14:30:28;13.10;99.90
41630;DHT22;27322;49.488;8.480;2024-02-26T14:32:54;13.10;99.90
41630;DHT22;27322;49.488;8.480;2024-02-26T14:35:20;13.10;99.90
41630;DHT22;27322;49.488;8.480;2024-02-26T14:37:46;13.10;99.90
41630;DHT22;27322;49.488;8.480;2024-02-26T14:40:13;13.00;99.90
41630;DHT22;27322;49.488;8.480;2024-02-26T14:42:40;13.00;99.90
41630;DHT22;27322;49.488;8.480;2024-02-26T14:45:06;13.00;99.90
41630;DHT22;27322;49.488;8.480;2024-02-26T14:47:34;13.00;99.90
41630;DHT22;27322;49.488;8.480;2024-02-26T14:50:00;12.90;99.90
41630;DHT22;27322;49.488;8.480;2024-02-26T14:52:26;12.90;99.90
41630;DHT22;27322;49.488;8.480;2024-02-26T14:54:51;12.90;99.90
41630;DHT22;27322;49.488;8.480;2024-02-26T14:57:18;12.90;99.90
41630;DHT22;27322;49.488;8.480;2024-02-26T14:59:44;12.90;99.90
41630;DHT22;27322;49.488;8.480;2024-02-26T15:02:10;12.90;99.90
41630;DHT22;27322;49.488;8.480;2024-02-26T15:04:38;12.80;99.90
41630;DHT22;27322;49.488;8.480;2024-02-26T15:07:04;12.80;99.90
41630;DHT22;27322;49.488;8.480;2024-02-26T15:09:30;12.80;99.90
41630;DHT22;27322;49.488;8.480;2024-02-26T15:11:55;12.80;99.90
41630;DHT22;27322;49.488;8.480;2024-02-26T15:14:23;12.80;99.90
41630;DHT22;27322;49.488;8.480;2024-02-26T15:16:49;12.70;99.90
41630;DHT22;27322;49.488;8.480;2024-02-26T15:19:14;12.70;99.90
41630;DHT22;27322;49.488;8.480;2024-02-26T15:21:47;12.70;99.90
41630;DHT22;27322;49.488;8.480;2024-02-26T15:24:13;12.70;99.90
41630;DHT22;27322;49.488;8.480;2024-02-26T15:26:41;12.70;99.90
41630;DHT22;27322;49.488;8.480;2024-02-26T15:29:07;12.60;99.90
41630;DHT22;27322;49.488;8.480;2024-02-26T15:31:36;12.60;99.90
41630;DHT22;27322;49.488;8.480;2024-02-26T15:34:02;12.60;99.90
41630;DHT22;27322;49.488;8.480;2024-02-26T15:36:28;12.60;99.90
41630;DHT22;27322;49.488;8.480;2024-02-26T15:38:54;12.50;99.90
41630;DHT22;27322;49.488;8.480;2024-02-26T15:41:20;12.50;99.90